Alba, Pennsylvania
Current Conditions -  °F | °C
As of 6:35 PM on Monday 20 Oct 2014 (Local Time) from KN38 Reporting Station
Overcast Overcast  
Wind Chill: 50°   Ceiling: 6500
Heat Index: 50°   Visibility: 10mi
Dew Point: 37°   Wind: 12mph
Humidity: 62%   Direction: 200°SSW
Pressure: 29.9"   Gusts: NA
Location:  41.71°N, 76.83°W
Report Text: KN38 202235Z AUTO 20010KT 10SM OVC065 10/03 A2990 RMK AO2
Loading
Personal Weather Stations






























Interactive Weather Map New forecast layout! Learn more

10-Day Weather Forecast

Advertisements
Track Severe Weather on mobile